sensor_id;sensor_type;location;lat;lon;timestamp;P1;durP1;ratioP1;P2;durP2;ratioP2
20067;SDS011;10194;50.824;7.134;2023-02-03T00:01:01;234.77;;;211.53;;
20067;SDS011;10194;50.824;7.134;2023-02-03T00:03:27;227.47;;;204.73;;
20067;SDS011;10194;50.824;7.134;2023-02-03T00:05:53;233.97;;;210.90;;
20067;SDS011;10194;50.824;7.134;2023-02-03T00:08:19;235.67;;;212.43;;
20067;SDS011;10194;50.824;7.134;2023-02-03T00:10:46;230.73;;;207.60;;
20067;SDS011;10194;50.824;7.134;2023-02-03T00:13:12;229.50;;;206.57;;
20067;SDS011;10194;50.824;7.134;2023-02-03T00:15:38;230.17;;;206.87;;
20067;SDS011;10194;50.824;7.134;2023-02-03T00:18:04;236.67;;;213.30;;
20067;SDS011;10194;50.824;7.134;2023-02-03T00:20:30;227.40;;;204.47;;
20067;SDS011;10194;50.824;7.134;2023-02-03T00:23:06;228.70;;;205.53;;
20067;SDS011;10194;50.824;7.134;2023-02-03T00:25:34;225.60;;;202.57;;
20067;SDS011;10194;50.824;7.134;2023-02-03T00:28:01;228.60;;;205.70;;
20067;SDS011;10194;50.824;7.134;2023-02-03T00:30:27;227.93;;;205.13;;
20067;SDS011;10194;50.824;7.134;2023-02-03T00:32:53;231.30;;;208.43;;
20067;SDS011;10194;50.824;7.134;2023-02-03T00:35:19;226.60;;;204.13;;
20067;SDS011;10194;50.824;7.134;2023-02-03T00:37:51;225.77;;;202.63;;
20067;SDS011;10194;50.824;7.134;2023-02-03T00:40:19;223.67;;;201.20;;
20067;SDS011;10194;50.824;7.134;2023-02-03T00:42:46;232.23;;;209.33;;
20067;SDS011;10194;50.824;7.134;2023-02-03T00:45:12;229.20;;;206.40;;
20067;SDS011;10194;50.824;7.134;2023-02-03T00:47:37;232.27;;;209.13;;
20067;SDS011;10194;50.824;7.134;2023-02-03T00:50:04;234.20;;;211.10;;
20067;SDS011;10194;50.824;7.134;2023-02-03T00:52:31;227.87;;;204.77;;
20067;SDS011;10194;50.824;7.134;2023-02-03T00:54:57;231.17;;;208.33;;
20067;SDS011;10194;50.824;7.134;2023-02-03T00:57:22;235.17;;;212.30;;
20067;SDS011;10194;50.824;7.134;2023-02-03T00:59:48;229.67;;;207.03;;
20067;SDS011;10194;50.824;7.134;2023-02-03T01:02:14;234.90;;;211.63;;
20067;SDS011;10194;50.824;7.134;2023-02-03T01:04:41;232.53;;;209.77;;
20067;SDS011;10194;50.824;7.134;2023-02-03T01:07:09;234.17;;;210.97;;
20067;SDS011;10194;50.824;7.134;2023-02-03T01:09:35;227.17;;;204.77;;
20067;SDS011;10194;50.824;7.134;2023-02-03T01:12:02;223.90;;;201.53;;
20067;SDS011;10194;50.824;7.134;2023-02-03T01:14:29;232.30;;;209.23;;
20067;SDS011;10194;50.824;7.134;2023-02-03T01:16:55;232.03;;;209.40;;
20067;SDS011;10194;50.824;7.134;2023-02-03T01:19:21;240.43;;;216.97;;
20067;SDS011;10194;50.824;7.134;2023-02-03T01:21:47;236.60;;;213.40;;
20067;SDS011;10194;50.824;7.134;2023-02-03T01:24:13;231.40;;;208.77;;
20067;SDS011;10194;50.824;7.134;2023-02-03T01:26:41;234.80;;;212.27;;
20067;SDS011;10194;50.824;7.134;2023-02-03T01:29:08;235.73;;;213.33;;
20067;SDS011;10194;50.824;7.134;2023-02-03T01:31:35;239.53;;;216.03;;
20067;SDS011;10194;50.824;7.134;2023-02-03T01:34:04;231.97;;;209.37;;
20067;SDS011;10194;50.824;7.134;2023-02-03T01:36:32;236.23;;;213.00;;
20067;SDS011;10194;50.824;7.134;2023-02-03T01:38:59;230.33;;;207.67;;
20067;SDS011;10194;50.824;7.134;2023-02-03T01:41:27;232.50;;;210.00;;
20067;SDS011;10194;50.824;7.134;2023-02-03T01:43:56;231.10;;;208.83;;
20067;SDS011;10194;50.824;7.134;2023-02-03T01:46:29;233.27;;;210.80;;
20067;SDS011;10194;50.824;7.134;2023-02-03T01:49:06;230.03;;;207.97;;
20067;SDS011;10194;50.824;7.134;2023-02-03T01:51:39;226.77;;;204.30;;
20067;SDS011;10194;50.824;7.134;2023-02-03T01:54:12;228.90;;;206.97;;
20067;SDS011;10194;50.824;7.134;2023-02-03T01:56:44;234.07;;;211.23;;
20067;SDS011;10194;50.824;7.134;2023-02-03T01:59:16;235.67;;;212.87;;
20067;SDS011;10194;50.824;7.134;2023-02-03T02:01:44;233.40;;;211.23;;
20067;SDS011;10194;50.824;7.134;2023-02-03T02:04:11;236.70;;;214.20;;
20067;SDS011;10194;50.824;7.134;2023-02-03T02:06:38;234.00;;;211.70;;
20067;SDS011;10194;50.824;7.134;2023-02-03T02:09:03;235.83;;;213.23;;
20067;SDS011;10194;50.824;7.134;2023-02-03T02:11:30;232.07;;;209.67;;
20067;SDS011;10194;50.824;7.134;2023-02-03T02:13:57;238.37;;;215.83;;
20067;SDS011;10194;50.824;7.134;2023-02-03T02:16:28;238.93;;;216.17;;
20067;SDS011;10194;50.824;7.134;2023-02-03T02:33:09;232.10;;;209.03;;
20067;SDS011;10194;50.824;7.134;2023-02-03T02:36:08;230.73;;;207.67;;
20067;SDS011;10194;50.824;7.134;2023-02-03T02:41:57;227.33;;;204.30;;
20067;SDS011;10194;50.824;7.134;2023-02-03T02:44:34;230.53;;;208.33;;
20067;SDS011;10194;50.824;7.134;2023-02-03T02:47:16;233.20;;;210.43;;
20067;SDS011;10194;50.824;7.134;2023-02-03T02:52:26;235.23;;;212.63;;
20067;SDS011;10194;50.824;7.134;2023-02-03T02:54:57;236.13;;;212.87;;
20067;SDS011;10194;50.824;7.134;2023-02-03T02:57:32;230.17;;;207.63;;
20067;SDS011;10194;50.824;7.134;2023-02-03T03:00:01;232.37;;;209.90;;
20067;SDS011;10194;50.824;7.134;2023-02-03T03:02:33;230.63;;;208.60;;
20067;SDS011;10194;50.824;7.134;2023-02-03T03:05:00;226.83;;;205.10;;
20067;SDS011;10194;50.824;7.134;2023-02-03T03:07:29;228.97;;;206.83;;
20067;SDS011;10194;50.824;7.134;2023-02-03T03:10:04;235.50;;;212.73;;
20067;SDS011;10194;50.824;7.134;2023-02-03T03:12:35;224.20;;;202.17;;
20067;SDS011;10194;50.824;7.134;2023-02-03T03:15:08;228.57;;;206.47;;
20067;SDS011;10194;50.824;7.134;2023-02-03T03:17:43;226.80;;;204.73;;
20067;SDS011;10194;50.824;7.134;2023-02-03T03:20:35;226.57;;;204.47;;
20067;SDS011;10194;50.824;7.134;2023-02-03T03:23:08;230.40;;;207.87;;
20067;SDS011;10194;50.824;7.134;2023-02-03T03:25:43;227.43;;;205.40;;
20067;SDS011;10194;50.824;7.134;2023-02-03T03:28:14;230.77;;;208.37;;
20067;SDS011;10194;50.824;7.134;2023-02-03T03:30:48;230.30;;;207.57;;
20067;SDS011;10194;50.824;7.134;2023-02-03T03:33:14;230.40;;;207.93;;
20067;SDS011;10194;50.824;7.134;2023-02-03T03:35:44;232.80;;;209.80;;
20067;SDS011;10194;50.824;7.134;2023-02-03T03:38:22;228.73;;;206.43;;
20067;SDS011;10194;50.824;7.134;2023-02-03T03:41:04;228.00;;;205.53;;
20067;SDS011;10194;50.824;7.134;2023-02-03T03:43:39;232.43;;;210.13;;
20067;SDS011;10194;50.824;7.134;2023-02-03T03:46:10;228.90;;;206.60;;
20067;SDS011;10194;50.824;7.134;2023-02-03T03:51:27;233.00;;;210.00;;
20067;SDS011;10194;50.824;7.134;2023-02-03T03:53:59;229.20;;;207.10;;
20067;SDS011;10194;50.824;7.134;2023-02-03T03:56:32;227.37;;;205.03;;
20067;SDS011;10194;50.824;7.134;2023-02-03T03:59:05;231.23;;;208.77;;
20067;SDS011;10194;50.824;7.134;2023-02-03T04:01:34;233.20;;;210.57;;
20067;SDS011;10194;50.824;7.134;2023-02-03T04:04:02;232.90;;;210.63;;
20067;SDS011;10194;50.824;7.134;2023-02-03T04:06:34;231.50;;;209.27;;
20067;SDS011;10194;50.824;7.134;2023-02-03T04:09:02;234.50;;;211.70;;
20067;SDS011;10194;50.824;7.134;2023-02-03T04:11:29;234.13;;;211.73;;
20067;SDS011;10194;50.824;7.134;2023-02-03T04:14:14;234.20;;;211.33;;
20067;SDS011;10194;50.824;7.134;2023-02-03T04:16:39;234.40;;;211.67;;
20067;SDS011;10194;50.824;7.134;2023-02-03T04:19:05;236.07;;;213.53;;
20067;SDS011;10194;50.824;7.134;2023-02-03T04:21:31;234.97;;;212.47;;
20067;SDS011;10194;50.824;7.134;2023-02-03T04:23:57;235.13;;;212.33;;
20067;SDS011;10194;50.824;7.134;2023-02-03T04:26:23;233.10;;;210.83;;
20067;SDS011;10194;50.824;7.134;2023-02-03T04:28:48;234.33;;;211.57;;
20067;SDS011;10194;50.824;7.134;2023-02-03T04:31:15;229.73;;;207.27;;
20067;SDS011;10194;50.824;7.134;2023-02-03T04:33:40;231.13;;;208.97;;
20067;SDS011;10194;50.824;7.134;2023-02-03T04:36:07;230.23;;;207.43;;
20067;SDS011;10194;50.824;7.134;2023-02-03T04:38:33;232.30;;;209.60;;
20067;SDS011;10194;50.824;7.134;2023-02-03T04:40:59;227.40;;;205.37;;
20067;SDS011;10194;50.824;7.134;2023-02-03T04:43:24;228.83;;;206.37;;
20067;SDS011;10194;50.824;7.134;2023-02-03T04:45:50;232.03;;;209.50;;
20067;SDS011;10194;50.824;7.134;2023-02-03T04:48:16;227.70;;;205.33;;
20067;SDS011;10194;50.824;7.134;2023-02-03T04:50:41;230.90;;;208.63;;
20067;SDS011;10194;50.824;7.134;2023-02-03T04:53:07;232.47;;;210.03;;
20067;SDS011;10194;50.824;7.134;2023-02-03T04:55:33;229.90;;;207.60;;
20067;SDS011;10194;50.824;7.134;2023-02-03T04:57:59;229.57;;;207.07;;
20067;SDS011;10194;50.824;7.134;2023-02-03T05:00:26;230.43;;;207.63;;
20067;SDS011;10194;50.824;7.134;2023-02-03T05:02:52;229.13;;;206.57;;
20067;SDS011;10194;50.824;7.134;2023-02-03T05:05:19;227.73;;;205.27;;
20067;SDS011;10194;50.824;7.134;2023-02-03T05:07:45;226.40;;;204.07;;
20067;SDS011;10194;50.824;7.134;2023-02-03T05:10:12;223.77;;;200.67;;
20067;SDS011;10194;50.824;7.134;2023-02-03T05:12:37;227.40;;;205.10;;
20067;SDS011;10194;50.824;7.134;2023-02-03T05:15:04;231.30;;;208.87;;
20067;SDS011;10194;50.824;7.134;2023-02-03T05:17:30;230.10;;;207.37;;
20067;SDS011;10194;50.824;7.134;2023-02-03T05:19:56;234.53;;;211.60;;
20067;SDS011;10194;50.824;7.134;2023-02-03T05:22:22;230.37;;;208.27;;
20067;SDS011;10194;50.824;7.134;2023-02-03T05:24:47;235.93;;;212.93;;
20067;SDS011;10194;50.824;7.134;2023-02-03T05:27:13;229.07;;;206.67;;
20067;SDS011;10194;50.824;7.134;2023-02-03T05:29:39;233.83;;;211.20;;
20067;SDS011;10194;50.824;7.134;2023-02-03T05:32:04;232.87;;;209.83;;
20067;SDS011;10194;50.824;7.134;2023-02-03T05:34:30;232.67;;;209.63;;
20067;SDS011;10194;50.824;7.134;2023-02-03T05:36:56;230.30;;;207.33;;
20067;SDS011;10194;50.824;7.134;2023-02-03T05:39:22;231.47;;;208.60;;
20067;SDS011;10194;50.824;7.134;2023-02-03T05:41:48;225.33;;;203.03;;
20067;SDS011;10194;50.824;7.134;2023-02-03T05:44:17;227.50;;;204.33;;
20067;SDS011;10194;50.824;7.134;2023-02-03T05:46:44;223.40;;;201.43;;
20067;SDS011;10194;50.824;7.134;2023-02-03T05:49:10;222.80;;;200.80;;
20067;SDS011;10194;50.824;7.134;2023-02-03T05:51:36;231.60;;;209.00;;
20067;SDS011;10194;50.824;7.134;2023-02-03T05:54:03;226.73;;;204.33;;
20067;SDS011;10194;50.824;7.134;2023-02-03T05:56:29;229.20;;;206.80;;
20067;SDS011;10194;50.824;7.134;2023-02-03T05:58:55;236.87;;;213.80;;
20067;SDS011;10194;50.824;7.134;2023-02-03T06:01:21;232.33;;;209.83;;
20067;SDS011;10194;50.824;7.134;2023-02-03T06:03:47;230.90;;;208.80;;
20067;SDS011;10194;50.824;7.134;2023-02-03T06:06:13;226.17;;;203.97;;
20067;SDS011;10194;50.824;7.134;2023-02-03T06:08:40;231.00;;;208.67;;
20067;SDS011;10194;50.824;7.134;2023-02-03T06:11:06;227.00;;;204.67;;
20067;SDS011;10194;50.824;7.134;2023-02-03T06:13:32;238.00;;;215.37;;
20067;SDS011;10194;50.824;7.134;2023-02-03T06:15:58;233.33;;;210.73;;
20067;SDS011;10194;50.824;7.134;2023-02-03T06:18:23;230.73;;;208.67;;
20067;SDS011;10194;50.824;7.134;2023-02-03T06:20:49;230.00;;;208.03;;
20067;SDS011;10194;50.824;7.134;2023-02-03T06:23:15;234.20;;;212.03;;
20067;SDS011;10194;50.824;7.134;2023-02-03T06:25:43;233.27;;;210.73;;
20067;SDS011;10194;50.824;7.134;2023-02-03T06:28:15;234.50;;;212.00;;
20067;SDS011;10194;50.824;7.134;2023-02-03T06:30:42;232.73;;;210.27;;
20067;SDS011;10194;50.824;7.134;2023-02-03T06:33:08;231.37;;;208.97;;
20067;SDS011;10194;50.824;7.134;2023-02-03T06:35:33;237.63;;;215.07;;
20067;SDS011;10194;50.824;7.134;2023-02-03T06:37:59;231.73;;;209.00;;
20067;SDS011;10194;50.824;7.134;2023-02-03T06:40:25;233.97;;;211.67;;
20067;SDS011;10194;50.824;7.134;2023-02-03T06:42:51;224.03;;;201.80;;
20067;SDS011;10194;50.824;7.134;2023-02-03T06:45:17;231.97;;;209.30;;
20067;SDS011;10194;50.824;7.134;2023-02-03T06:47:43;225.03;;;203.03;;
20067;SDS011;10194;50.824;7.134;2023-02-03T06:50:11;233.03;;;210.07;;
20067;SDS011;10194;50.824;7.134;2023-02-03T06:52:38;230.70;;;208.60;;
20067;SDS011;10194;50.824;7.134;2023-02-03T06:55:05;230.47;;;208.20;;
20067;SDS011;10194;50.824;7.134;2023-02-03T06:57:32;231.90;;;209.43;;
20067;SDS011;10194;50.824;7.134;2023-02-03T06:59:58;233.30;;;210.90;;
20067;SDS011;10194;50.824;7.134;2023-02-03T07:02:23;232.47;;;210.10;;
20067;SDS011;10194;50.824;7.134;2023-02-03T07:04:49;224.87;;;202.67;;
20067;SDS011;10194;50.824;7.134;2023-02-03T07:07:15;233.40;;;210.90;;
20067;SDS011;10194;50.824;7.134;2023-02-03T07:09:41;223.60;;;201.57;;
20067;SDS011;10194;50.824;7.134;2023-02-03T07:12:07;233.00;;;210.43;;
20067;SDS011;10194;50.824;7.134;2023-02-03T07:14:34;223.53;;;201.63;;
20067;SDS011;10194;50.824;7.134;2023-02-03T07:17:00;232.97;;;210.53;;
20067;SDS011;10194;50.824;7.134;2023-02-03T07:19:27;225.50;;;203.53;;
20067;SDS011;10194;50.824;7.134;2023-02-03T07:21:56;227.10;;;204.93;;
20067;SDS011;10194;50.824;7.134;2023-02-03T07:24:21;226.93;;;204.87;;
20067;SDS011;10194;50.824;7.134;2023-02-03T07:26:47;236.97;;;214.47;;
20067;SDS011;10194;50.824;7.134;2023-02-03T07:29:13;231.50;;;209.17;;
20067;SDS011;10194;50.824;7.134;2023-02-03T07:31:39;225.40;;;203.20;;
20067;SDS011;10194;50.824;7.134;2023-02-03T07:34:04;228.63;;;206.23;;
20067;SDS011;10194;50.824;7.134;2023-02-03T07:36:30;229.73;;;206.90;;
20067;SDS011;10194;50.824;7.134;2023-02-03T07:38:57;227.30;;;205.07;;
20067;SDS011;10194;50.824;7.134;2023-02-03T07:41:23;238.37;;;215.83;;
20067;SDS011;10194;50.824;7.134;2023-02-03T07:43:49;235.43;;;213.23;;
20067;SDS011;10194;50.824;7.134;2023-02-03T07:46:14;235.97;;;213.50;;
20067;SDS011;10194;50.824;7.134;2023-02-03T07:48:40;230.40;;;208.10;;
20067;SDS011;10194;50.824;7.134;2023-02-03T07:51:06;226.07;;;203.57;;
20067;SDS011;10194;50.824;7.134;2023-02-03T07:53:32;236.30;;;213.90;;
20067;SDS011;10194;50.824;7.134;2023-02-03T07:55:59;231.30;;;209.00;;
20067;SDS011;10194;50.824;7.134;2023-02-03T07:58:26;234.97;;;212.67;;
20067;SDS011;10194;50.824;7.134;2023-02-03T08:00:51;232.40;;;209.93;;
20067;SDS011;10194;50.824;7.134;2023-02-03T08:03:17;237.60;;;215.30;;
20067;SDS011;10194;50.824;7.134;2023-02-03T08:05:43;229.40;;;206.57;;
20067;SDS011;10194;50.824;7.134;2023-02-03T08:08:08;232.47;;;209.97;;
20067;SDS011;10194;50.824;7.134;2023-02-03T08:10:34;238.30;;;215.50;;
20067;SDS011;10194;50.824;7.134;2023-02-03T08:13:00;227.03;;;204.97;;
20067;SDS011;10194;50.824;7.134;2023-02-03T08:15:26;225.43;;;203.63;;
20067;SDS011;10194;50.824;7.134;2023-02-03T08:17:51;231.03;;;208.73;;
20067;SDS011;10194;50.824;7.134;2023-02-03T08:20:17;226.60;;;203.90;;
20067;SDS011;10194;50.824;7.134;2023-02-03T08:22:43;238.50;;;216.00;;
20067;SDS011;10194;50.824;7.134;2023-02-03T08:25:09;225.80;;;204.03;;
20067;SDS011;10194;50.824;7.134;2023-02-03T08:27:35;226.17;;;204.13;;
20067;SDS011;10194;50.824;7.134;2023-02-03T08:30:02;233.63;;;210.37;;
20067;SDS011;10194;50.824;7.134;2023-02-03T08:32:28;237.73;;;215.27;;
20067;SDS011;10194;50.824;7.134;2023-02-03T08:34:54;237.33;;;214.90;;
20067;SDS011;10194;50.824;7.134;2023-02-03T08:37:20;237.07;;;214.47;;
20067;SDS011;10194;50.824;7.134;2023-02-03T08:39:50;237.50;;;214.73;;
20067;SDS011;10194;50.824;7.134;2023-02-03T08:42:16;236.63;;;213.90;;
20067;SDS011;10194;50.824;7.134;2023-02-03T08:44:43;235.17;;;212.77;;
20067;SDS011;10194;50.824;7.134;2023-02-03T08:47:09;244.27;;;221.40;;
20067;SDS011;10194;50.824;7.134;2023-02-03T08:49:36;236.57;;;213.87;;
20067;SDS011;10194;50.824;7.134;2023-02-03T08:52:06;235.60;;;212.90;;
20067;SDS011;10194;50.824;7.134;2023-02-03T08:54:34;240.80;;;218.10;;
20067;SDS011;10194;50.824;7.134;2023-02-03T08:57:01;235.77;;;213.23;;
20067;SDS011;10194;50.824;7.134;2023-02-03T08:59:27;251.00;;;227.57;;
20067;SDS011;10194;50.824;7.134;2023-02-03T09:01:54;241.10;;;218.17;;
20067;SDS011;10194;50.824;7.134;2023-02-03T09:04:20;241.90;;;218.33;;
20067;SDS011;10194;50.824;7.134;2023-02-03T09:06:49;246.10;;;223.07;;
20067;SDS011;10194;50.824;7.134;2023-02-03T09:09:18;245.87;;;222.50;;
20067;SDS011;10194;50.824;7.134;2023-02-03T09:11:45;246.47;;;223.47;;
20067;SDS011;10194;50.824;7.134;2023-02-03T09:14:11;242.10;;;218.60;;
20067;SDS011;10194;50.824;7.134;2023-02-03T09:16:37;236.20;;;213.13;;
20067;SDS011;10194;50.824;7.134;2023-02-03T09:19:03;239.17;;;216.00;;
20067;SDS011;10194;50.824;7.134;2023-02-03T09:21:31;236.83;;;214.10;;
20067;SDS011;10194;50.824;7.134;2023-02-03T09:23:59;238.33;;;215.37;;
20067;SDS011;10194;50.824;7.134;2023-02-03T09:26:26;237.40;;;214.63;;
20067;SDS011;10194;50.824;7.134;2023-02-03T09:28:52;237.30;;;214.23;;
20067;SDS011;10194;50.824;7.134;2023-02-03T09:31:18;232.80;;;210.53;;
20067;SDS011;10194;50.824;7.134;2023-02-03T09:33:44;237.07;;;214.87;;
20067;SDS011;10194;50.824;7.134;2023-02-03T09:36:10;238.83;;;216.27;;
20067;SDS011;10194;50.824;7.134;2023-02-03T09:38:37;239.07;;;216.10;;
20067;SDS011;10194;50.824;7.134;2023-02-03T09:41:09;222.47;;;200.10;;
20067;SDS011;10194;50.824;7.134;2023-02-03T09:44:10;232.43;;;210.00;;
20067;SDS011;10194;50.824;7.134;2023-02-03T09:47:02;232.57;;;209.77;;
20067;SDS011;10194;50.824;7.134;2023-02-03T09:49:43;231.43;;;209.27;;
20067;SDS011;10194;50.824;7.134;2023-02-03T09:52:24;239.03;;;216.13;;
20067;SDS011;10194;50.824;7.134;2023-02-03T09:55:05;237.33;;;214.63;;
20067;SDS011;10194;50.824;7.134;2023-02-03T09:58:09;234.57;;;211.77;;
20067;SDS011;10194;50.824;7.134;2023-02-03T10:17:47;238.07;;;215.00;;
20067;SDS011;10194;50.824;7.134;2023-02-03T10:20:23;234.87;;;212.13;;
20067;SDS011;10194;50.824;7.134;2023-02-03T10:22:55;240.20;;;217.37;;
20067;SDS011;10194;50.824;7.134;2023-02-03T10:25:27;231.67;;;209.30;;
20067;SDS011;10194;50.824;7.134;2023-02-03T10:28:23;235.43;;;212.87;;
20067;SDS011;10194;50.824;7.134;2023-02-03T10:31:06;237.60;;;214.00;;
20067;SDS011;10194;50.824;7.134;2023-02-03T10:33:41;240.10;;;217.10;;
20067;SDS011;10194;50.824;7.134;2023-02-03T10:41:18;226.20;;;204.00;;
20067;SDS011;10194;50.824;7.134;2023-02-03T10:43:45;234.73;;;212.20;;
20067;SDS011;10194;50.824;7.134;2023-02-03T10:46:17;226.20;;;203.93;;
20067;SDS011;10194;50.824;7.134;2023-02-03T10:48:53;233.80;;;211.00;;
20067;SDS011;10194;50.824;7.134;2023-02-03T10:51:27;229.00;;;206.67;;
20067;SDS011;10194;50.824;7.134;2023-02-03T10:54:30;235.67;;;212.80;;
20067;SDS011;10194;50.824;7.134;2023-02-03T10:57:02;231.27;;;208.90;;
20067;SDS011;10194;50.824;7.134;2023-02-03T10:59:35;234.07;;;211.60;;
20067;SDS011;10194;50.824;7.134;2023-02-03T11:02:22;237.47;;;214.67;;
20067;SDS011;10194;50.824;7.134;2023-02-03T11:07:40;235.57;;;212.80;;
20067;SDS011;10194;50.824;7.134;2023-02-03T11:10:50;242.97;;;218.83;;
20067;SDS011;10194;50.824;7.134;2023-02-03T11:13:12;238.07;;;215.03;;
20067;SDS011;10194;50.824;7.134;2023-02-03T11:21:08;230.27;;;207.47;;
20067;SDS011;10194;50.824;7.134;2023-02-03T11:24:00;235.73;;;212.60;;
20067;SDS011;10194;50.824;7.134;2023-02-03T11:26:40;235.27;;;212.37;;
20067;SDS011;10194;50.824;7.134;2023-02-03T11:29:14;231.23;;;208.30;;
20067;SDS011;10194;50.824;7.134;2023-02-03T11:31:51;227.83;;;205.63;;
20067;SDS011;10194;50.824;7.134;2023-02-03T11:34:28;230.53;;;208.17;;
20067;SDS011;10194;50.824;7.134;2023-02-03T11:42:31;237.87;;;215.40;;
20067;SDS011;10194;50.824;7.134;2023-02-03T11:53:40;239.03;;;215.93;;
20067;SDS011;10194;50.824;7.134;2023-02-03T12:01:45;236.00;;;213.33;;
20067;SDS011;10194;50.824;7.134;2023-02-03T12:10:36;237.50;;;214.80;;
20067;SDS011;10194;50.824;7.134;2023-02-03T12:27:48;240.83;;;217.13;;
20067;SDS011;10194;50.824;7.134;2023-02-03T12:30:20;249.90;;;225.33;;
20067;SDS011;10194;50.824;7.134;2023-02-03T12:32:54;234.67;;;211.70;;
20067;SDS011;10194;50.824;7.134;2023-02-03T12:35:26;235.97;;;213.03;;
20067;SDS011;10194;50.824;7.134;2023-02-03T12:40:42;232.63;;;209.50;;
20067;SDS011;10194;50.824;7.134;2023-02-03T12:46:31;227.00;;;204.57;;
20067;SDS011;10194;50.824;7.134;2023-02-03T12:52:11;227.20;;;204.10;;
20067;SDS011;10194;50.824;7.134;2023-02-03T12:54:51;224.93;;;202.57;;
20067;SDS011;10194;50.824;7.134;2023-02-03T12:58:05;217.20;;;195.27;;
20067;SDS011;10194;50.824;7.134;2023-02-03T13:06:56;226.27;;;203.33;;
20067;SDS011;10194;50.824;7.134;2023-02-03T13:09:40;236.60;;;213.33;;
20067;SDS011;10194;50.824;7.134;2023-02-03T13:14:53;234.80;;;211.97;;
20067;SDS011;10194;50.824;7.134;2023-02-03T13:17:56;228.37;;;205.47;;
20067;SDS011;10194;50.824;7.134;2023-02-03T13:20:32;229.57;;;206.57;;
20067;SDS011;10194;50.824;7.134;2023-02-03T13:23:04;225.97;;;203.30;;
20067;SDS011;10194;50.824;7.134;2023-02-03T13:31:33;234.60;;;211.80;;
20067;SDS011;10194;50.824;7.134;2023-02-03T13:43:37;238.23;;;215.00;;
20067;SDS011;10194;50.824;7.134;2023-02-03T13:46:17;241.07;;;217.17;;
20067;SDS011;10194;50.824;7.134;2023-02-03T13:48:51;234.13;;;210.87;;
20067;SDS011;10194;50.824;7.134;2023-02-03T13:51:20;231.60;;;208.87;;
20067;SDS011;10194;50.824;7.134;2023-02-03T13:53:49;240.10;;;216.80;;
20067;SDS011;10194;50.824;7.134;2023-02-03T13:56:20;225.83;;;203.03;;
20067;SDS011;10194;50.824;7.134;2023-02-03T14:01:52;229.87;;;206.73;;
20067;SDS011;10194;50.824;7.134;2023-02-03T14:15:21;233.97;;;210.23;;
20067;SDS011;10194;50.824;7.134;2023-02-03T14:25:32;231.23;;;208.20;;
20067;SDS011;10194;50.824;7.134;2023-02-03T14:28:04;235.50;;;211.87;;
20067;SDS011;10194;50.824;7.134;2023-02-03T14:33:50;222.47;;;198.20;;
20067;SDS011;10194;50.824;7.134;2023-02-03T14:36:32;226.27;;;202.70;;
20067;SDS011;10194;50.824;7.134;2023-02-03T14:51:03;221.13;;;197.57;;
20067;SDS011;10194;50.824;7.134;2023-02-03T15:02:16;234.27;;;210.93;;
20067;SDS011;10194;50.824;7.134;2023-02-03T15:04:50;226.30;;;203.13;;
20067;SDS011;10194;50.824;7.134;2023-02-03T15:13:02;224.07;;;200.47;;
20067;SDS011;10194;50.824;7.134;2023-02-03T15:15:29;231.20;;;207.30;;
20067;SDS011;10194;50.824;7.134;2023-02-03T15:18:18;201.10;;;179.00;;
20067;SDS011;10194;50.824;7.134;2023-02-03T15:21:01;222.13;;;198.90;;
20067;SDS011;10194;50.824;7.134;2023-02-03T15:23:30;219.97;;;197.23;;
20067;SDS011;10194;50.824;7.134;2023-02-03T15:26:11;218.07;;;195.43;;
20067;SDS011;10194;50.824;7.134;2023-02-03T15:35:05;216.37;;;193.13;;
20067;SDS011;10194;50.824;7.134;2023-02-03T15:37:42;222.57;;;199.60;;
20067;SDS011;10194;50.824;7.134;2023-02-03T15:40:15;201.97;;;179.60;;
20067;SDS011;10194;50.824;7.134;2023-02-03T15:42:58;206.73;;;184.67;;
20067;SDS011;10194;50.824;7.134;2023-02-03T15:45:35;212.77;;;190.63;;
20067;SDS011;10194;50.824;7.134;2023-02-03T15:54:01;225.60;;;202.70;;
20067;SDS011;10194;50.824;7.134;2023-02-03T15:56:58;218.97;;;196.53;;
20067;SDS011;10194;50.824;7.134;2023-02-03T16:02:00;201.40;;;179.60;;
20067;SDS011;10194;50.824;7.134;2023-02-03T16:04:36;197.37;;;175.90;;
20067;SDS011;10194;50.824;7.134;2023-02-03T16:07:02;194.27;;;172.43;;
20067;SDS011;10194;50.824;7.134;2023-02-03T16:09:30;191.00;;;170.03;;
20067;SDS011;10194;50.824;7.134;2023-02-03T16:14:48;195.43;;;174.40;;
20067;SDS011;10194;50.824;7.134;2023-02-03T16:17:36;202.77;;;181.77;;
20067;SDS011;10194;50.824;7.134;2023-02-03T16:22:39;215.90;;;193.57;;
20067;SDS011;10194;50.824;7.134;2023-02-03T16:25:17;207.67;;;186.17;;
20067;SDS011;10194;50.824;7.134;2023-02-03T16:28:01;204.83;;;182.80;;
20067;SDS011;10194;50.824;7.134;2023-02-03T16:31:02;215.53;;;193.03;;
20067;SDS011;10194;50.824;7.134;2023-02-03T16:33:59;219.67;;;196.60;;
20067;SDS011;10194;50.824;7.134;2023-02-03T16:36:45;214.57;;;192.40;;
20067;SDS011;10194;50.824;7.134;2023-02-03T16:39:29;206.03;;;184.27;;
20067;SDS011;10194;50.824;7.134;2023-02-03T16:42:15;210.33;;;188.33;;
20067;SDS011;10194;50.824;7.134;2023-02-03T16:45:02;209.73;;;187.50;;
20067;SDS011;10194;50.824;7.134;2023-02-03T16:47:57;197.90;;;176.40;;
20067;SDS011;10194;50.824;7.134;2023-02-03T16:50:42;206.57;;;184.50;;
20067;SDS011;10194;50.824;7.134;2023-02-03T16:53:16;193.73;;;172.87;;
20067;SDS011;10194;50.824;7.134;2023-02-03T16:55:45;196.30;;;175.33;;
20067;SDS011;10194;50.824;7.134;2023-02-03T16:58:12;200.80;;;179.83;;
20067;SDS011;10194;50.824;7.134;2023-02-03T17:00:38;195.53;;;174.60;;
20067;SDS011;10194;50.824;7.134;2023-02-03T17:03:07;203.77;;;181.77;;
20067;SDS011;10194;50.824;7.134;2023-02-03T17:05:39;209.80;;;187.00;;
20067;SDS011;10194;50.824;7.134;2023-02-03T17:08:07;209.33;;;187.20;;
20067;SDS011;10194;50.824;7.134;2023-02-03T17:10:33;212.83;;;190.27;;
20067;SDS011;10194;50.824;7.134;2023-02-03T17:13:04;204.10;;;182.50;;
20067;SDS011;10194;50.824;7.134;2023-02-03T17:15:32;202.33;;;180.77;;
20067;SDS011;10194;50.824;7.134;2023-02-03T17:17:59;206.73;;;185.00;;
20067;SDS011;10194;50.824;7.134;2023-02-03T17:20:25;210.93;;;188.43;;
20067;SDS011;10194;50.824;7.134;2023-02-03T17:22:51;205.93;;;184.10;;
20067;SDS011;10194;50.824;7.134;2023-02-03T17:25:18;207.57;;;185.20;;
20067;SDS011;10194;50.824;7.134;2023-02-03T17:27:45;211.33;;;189.30;;
20067;SDS011;10194;50.824;7.134;2023-02-03T17:30:11;211.33;;;188.63;;
20067;SDS011;10194;50.824;7.134;2023-02-03T17:32:38;211.13;;;189.33;;
20067;SDS011;10194;50.824;7.134;2023-02-03T17:35:04;203.03;;;181.03;;